createdAt,value
2023-11-30T00:00:43.094Z,101277.59
2023-11-30T00:03:10.338Z,101280.17
2023-11-30T00:05:37.622Z,101284.36
2023-11-30T00:08:05.080Z,101290.81
2023-11-30T00:10:32.057Z,101292.14
2023-11-30T00:12:59.183Z,101292.98
2023-11-30T00:15:26.514Z,101298.48
2023-11-30T00:17:53.842Z,101298.11
2023-11-30T00:20:20.929Z,101299.84
2023-11-30T00:22:48.700Z,101302.44
2023-11-30T00:25:16.039Z,101300.11
2023-11-30T00:27:43.081Z,101299.67
2023-11-30T00:30:11.231Z,101298.36
2023-11-30T00:32:38.543Z,101299.90
2023-11-30T00:35:06.298Z,101295.92
2023-11-30T00:37:33.439Z,101292.38
2023-11-30T00:40:00.604Z,101297.69
2023-11-30T00:42:27.837Z,101295.38
2023-11-30T00:44:55.126Z,101295.48
2023-11-30T00:47:22.414Z,101297.16
2023-11-30T00:49:49.502Z,101297.16
2023-11-30T00:52:16.657Z,101300.27
2023-11-30T00:54:43.745Z,101299.16
2023-11-30T00:57:10.831Z,101297.98
2023-11-30T00:59:38.098Z,101299.46
2023-11-30T01:02:06.172Z,101299.36
2023-11-30T01:04:33.499Z,101296.56
2023-11-30T01:07:00.556Z,101294.02
2023-11-30T01:09:27.708Z,101296.62
2023-11-30T01:11:55.216Z,101293.88
2023-11-30T01:14:23.497Z,101296.76
2023-11-30T01:16:50.683Z,101298.23
2023-11-30T01:19:18.456Z,101300.15
2023-11-30T01:21:45.877Z,101300.83
2023-11-30T01:24:13.269Z,101305.08
2023-11-30T01:26:40.531Z,101304.00
2023-11-30T01:29:07.640Z,101305.50
2023-11-30T01:31:34.773Z,101308.52
2023-11-30T01:34:02.243Z,101304.31
2023-11-30T01:36:29.597Z,101303.04
2023-11-30T01:38:56.918Z,101304.89
2023-11-30T01:41:24.205Z,101304.13
2023-11-30T01:43:51.315Z,101302.86
2023-11-30T01:46:19.301Z,101304.86
2023-11-30T01:48:48.180Z,101302.74
2023-11-30T01:51:17.270Z,101301.89
2023-11-30T01:53:45.226Z,101299.51
2023-11-30T01:56:13.754Z,101295.48
2023-11-30T01:58:41.484Z,101291.36
2023-11-30T02:01:09.370Z,101283.79
2023-11-30T02:03:38.736Z,101286.13
2023-11-30T02:06:06.647Z,101282.29
2023-11-30T02:08:33.724Z,101276.69
2023-11-30T02:11:01.159Z,101276.69
2023-11-30T02:13:28.586Z,101271.44
2023-11-30T02:15:55.698Z,101272.18
2023-11-30T02:18:23.181Z,101272.23
2023-11-30T02:20:50.382Z,101275.52
2023-11-30T02:23:17.685Z,101277.58
2023-11-30T02:25:45.076Z,101279.59
2023-11-30T02:28:19.659Z,101280.38
2023-11-30T02:30:51.121Z,101280.05
2023-11-30T02:33:18.443Z,101276.02
2023-11-30T02:35:46.260Z,101270.68
2023-11-30T02:38:13.384Z,101270.73
2023-11-30T02:40:40.441Z,101267.92
2023-11-30T02:43:07.686Z,101265.33
2023-11-30T02:45:34.823Z,101267.13
2023-11-30T02:48:02.382Z,101264.42
2023-11-30T02:50:29.550Z,101259.92
2023-11-30T02:52:56.697Z,101260.39
2023-11-30T02:55:23.849Z,101261.33
2023-11-30T02:57:51.612Z,101260.15
2023-11-30T03:00:20.230Z,101262.86
2023-11-30T03:02:50.486Z,101259.69
2023-11-30T03:05:17.834Z,101262.70
2023-11-30T03:07:45.458Z,101262.27
2023-11-30T03:10:13.104Z,101259.86
2023-11-30T03:12:40.210Z,101261.80
2023-11-30T03:15:09.397Z,101258.30
2023-11-30T03:17:36.816Z,101251.68
2023-11-30T03:20:04.146Z,101249.41
2023-11-30T03:22:31.431Z,101249.09
2023-11-30T03:24:59.071Z,101248.24
2023-11-30T03:27:26.624Z,101252.74
2023-11-30T03:29:53.791Z,101255.17
2023-11-30T03:32:22.066Z,101259.39
2023-11-30T03:34:49.160Z,101257.35
2023-11-30T03:37:16.367Z,101260.36
2023-11-30T03:39:43.936Z,101265.34
2023-11-30T03:42:11.032Z,101265.88
2023-11-30T03:44:38.620Z,101270.95
2023-11-30T03:47:05.732Z,101271.17
2023-11-30T03:49:32.934Z,101277.04
2023-11-30T03:52:00.201Z,101279.17
2023-11-30T03:54:27.598Z,101281.08
2023-11-30T03:56:54.880Z,101280.16
2023-11-30T03:59:22.173Z,101278.71
2023-11-30T04:01:49.799Z,101277.92
2023-11-30T04:04:17.108Z,101277.02
2023-11-30T04:06:45.130Z,101277.96
2023-11-30T04:09:12.240Z,101283.95
2023-11-30T04:11:39.314Z,101289.31
2023-11-30T04:14:08.039Z,101286.45
2023-11-30T04:16:36.096Z,101288.52
2023-11-30T04:19:03.388Z,101290.67
2023-11-30T04:21:31.352Z,101291.42
2023-11-30T04:23:58.521Z,101294.29
2023-11-30T04:26:27.149Z,101295.45
2023-11-30T04:28:54.449Z,101292.48
2023-11-30T04:31:21.847Z,101296.14
2023-11-30T04:33:49.105Z,101300.11
2023-11-30T04:36:16.641Z,101300.80
2023-11-30T04:38:43.806Z,101301.21
2023-11-30T04:41:10.966Z,101299.10
2023-11-30T04:43:39.132Z,101299.19
2023-11-30T04:46:06.480Z,101301.20
2023-11-30T04:48:34.249Z,101302.05
2023-11-30T04:51:01.840Z,101301.80
2023-11-30T04:53:29.061Z,101302.12
2023-11-30T04:55:56.215Z,101300.32
2023-11-30T04:58:23.769Z,101305.25
2023-11-30T05:00:51.637Z,101304.98
2023-11-30T05:03:19.254Z,101302.16
2023-11-30T05:05:46.972Z,101305.23
2023-11-30T05:08:14.830Z,101307.88
2023-11-30T05:10:42.723Z,101309.25
2023-11-30T05:13:09.759Z,101309.31
2023-11-30T05:15:39.698Z,101310.89
2023-11-30T05:18:07.969Z,101312.30
2023-11-30T05:20:35.312Z,101321.48
2023-11-30T05:23:03.268Z,101322.92
2023-11-30T05:25:31.330Z,101327.05
2023-11-30T05:27:59.918Z,101332.92
2023-11-30T05:30:29.141Z,101331.70
2023-11-30T05:32:57.886Z,101332.63
2023-11-30T05:35:25.137Z,101330.71
2023-11-30T05:37:52.804Z,101335.32
2023-11-30T05:40:21.017Z,101339.02
2023-11-30T05:42:49.007Z,101336.75
2023-11-30T05:45:16.596Z,101337.96
2023-11-30T05:47:44.191Z,101338.56
2023-11-30T05:50:11.444Z,101341.69
2023-11-30T05:52:38.800Z,101338.82
2023-11-30T05:55:09.068Z,101343.91
2023-11-30T05:57:37.182Z,101344.05
2023-11-30T06:00:07.613Z,101343.63
2023-11-30T06:02:44.225Z,101344.48
2023-11-30T06:05:12.035Z,101344.86
2023-11-30T06:07:39.858Z,101345.42
2023-11-30T06:10:11.644Z,101342.89
2023-11-30T06:12:40.513Z,101343.16
2023-11-30T06:15:08.280Z,101343.38
2023-11-30T06:17:35.909Z,101341.17
2023-11-30T06:20:08.132Z,101341.34
2023-11-30T06:22:37.291Z,101341.40
2023-11-30T06:25:06.072Z,101339.44
2023-11-30T06:27:33.415Z,101339.02
2023-11-30T06:30:00.986Z,101343.27
2023-11-30T06:32:28.663Z,101342.67
2023-11-30T06:34:56.473Z,101341.07
2023-11-30T06:37:24.808Z,101338.63
2023-11-30T06:39:53.141Z,101337.75
2023-11-30T06:42:20.926Z,101342.58
2023-11-30T06:44:49.568Z,101345.48
2023-11-30T06:47:17.410Z,101350.41
2023-11-30T06:49:46.865Z,101353.65
2023-11-30T06:52:14.815Z,101359.39
2023-11-30T06:54:42.261Z,101359.40
2023-11-30T06:57:09.831Z,101365.02
2023-11-30T06:59:37.495Z,101369.95
2023-11-30T07:02:04.673Z,101370.08
2023-11-30T07:04:31.854Z,101372.09
2023-11-30T07:06:58.971Z,101374.11
2023-11-30T07:09:26.095Z,101375.26
2023-11-30T07:11:53.204Z,101377.64
2023-11-30T07:14:20.186Z,101378.94
2023-11-30T07:16:47.809Z,101382.70
2023-11-30T07:19:15.273Z,101390.04
2023-11-30T07:21:42.268Z,101391.61
2023-11-30T07:24:11.518Z,101396.61
2023-11-30T07:26:40.351Z,101396.30
2023-11-30T07:29:07.465Z,101396.99
2023-11-30T07:31:35.861Z,101399.92
2023-11-30T07:34:04.301Z,101398.60
2023-11-30T07:36:31.563Z,101406.51
2023-11-30T07:38:58.791Z,101408.63
2023-11-30T07:41:25.892Z,101413.98
2023-11-30T07:43:53.066Z,101413.89
2023-11-30T07:46:20.780Z,101413.94
2023-11-30T07:48:47.839Z,101415.16
2023-11-30T07:51:15.139Z,101416.28
2023-11-30T07:53:42.349Z,101416.88
2023-11-30T07:56:10.265Z,101419.64
2023-11-30T07:58:37.756Z,101420.11
2023-11-30T08:01:05.932Z,101420.87
2023-11-30T08:03:33.632Z,101418.80
2023-11-30T08:06:00.912Z,101419.39
2023-11-30T08:08:28.216Z,101417.64
2023-11-30T08:10:57.059Z,101420.61
2023-11-30T08:13:26.568Z,101417.48
2023-11-30T08:15:53.712Z,101419.80
2023-11-30T08:18:25.774Z,101423.61
2023-11-30T08:20:55.544Z,101426.70
2023-11-30T08:23:23.582Z,101427.14
2023-11-30T08:25:51.115Z,101428.05
2023-11-30T08:28:18.544Z,101428.73
2023-11-30T08:30:49.928Z,101427.83
2023-11-30T08:33:17.111Z,101432.58
2023-11-30T08:35:44.374Z,101429.51
2023-11-30T08:38:11.633Z,101431.10
2023-11-30T08:40:38.697Z,101435.81
2023-11-30T08:43:06.310Z,101438.69
2023-11-30T08:45:33.823Z,101439.66
2023-11-30T08:48:00.910Z,101442.73
2023-11-30T08:50:28.249Z,101448.61
2023-11-30T08:52:55.390Z,101448.84
2023-11-30T08:55:22.520Z,101452.29
2023-11-30T08:57:50.022Z,101457.02
2023-11-30T09:00:20.558Z,101455.54
2023-11-30T09:02:48.074Z,101449.66
2023-11-30T09:05:15.228Z,101450.68
2023-11-30T09:07:42.366Z,101448.71
2023-11-30T09:10:10.155Z,101449.48
2023-11-30T09:12:37.721Z,101452.19
2023-11-30T09:15:10.240Z,101448.80
2023-11-30T09:17:37.737Z,101447.16
2023-11-30T09:20:09.039Z,101439.42
2023-11-30T09:22:36.654Z,101440.59
2023-11-30T09:25:04.461Z,101438.41
2023-11-30T09:27:31.857Z,101434.02
2023-11-30T09:29:59.032Z,101432.33
2023-11-30T09:32:26.182Z,101430.52
2023-11-30T09:34:55.918Z,101429.80
2023-11-30T09:37:23.531Z,101428.41
2023-11-30T09:39:50.656Z,101425.86
2023-11-30T09:42:18.107Z,101423.33
2023-11-30T09:44:45.291Z,101418.66
2023-11-30T09:47:12.816Z,101415.59
2023-11-30T09:49:39.920Z,101414.21
2023-11-30T09:52:07.948Z,101413.99
2023-11-30T09:54:36.040Z,101411.29
2023-11-30T09:57:06.070Z,101413.42
2023-11-30T09:59:33.344Z,101410.50
2023-11-30T10:02:04.493Z,101404.89
2023-11-30T10:04:33.901Z,101405.80
2023-11-30T10:07:00.935Z,101407.98
2023-11-30T10:09:28.541Z,101410.31
2023-11-30T10:11:56.079Z,101410.99
2023-11-30T10:14:23.262Z,101414.66
2023-11-30T10:16:50.512Z,101408.19
2023-11-30T10:19:17.923Z,101404.80
2023-11-30T10:21:45.140Z,101397.33
2023-11-30T10:24:14.230Z,101398.65
2023-11-30T10:26:44.698Z,101394.56
2023-11-30T10:29:17.040Z,101393.25
2023-11-30T10:31:45.213Z,101390.01
2023-11-30T10:34:15.461Z,101392.08
2023-11-30T10:36:44.748Z,101389.92
2023-11-30T10:39:24.605Z,101388.64
2023-11-30T10:41:56.162Z,101385.67
2023-11-30T10:44:28.311Z,101385.55
2023-11-30T10:46:59.948Z,101386.94
2023-11-30T10:49:29.786Z,101387.04
2023-11-30T10:52:02.039Z,101387.93
2023-11-30T10:54:36.722Z,101383.38
2023-11-30T10:57:04.737Z,101380.99
2023-11-30T10:59:33.153Z,101377.55
2023-11-30T11:02:01.435Z,101377.08
2023-11-30T11:04:29.533Z,101373.33
2023-11-30T11:07:14.106Z,101371.63
2023-11-30T11:09:46.313Z,101364.95
2023-11-30T11:12:27.556Z,101364.79
2023-11-30T11:15:15.746Z,101361.84
2023-11-30T11:17:51.300Z,101362.89
2023-11-30T11:20:27.703Z,101355.95
2023-11-30T11:23:06.585Z,101353.18
2023-11-30T11:25:52.042Z,101343.54
2023-11-30T11:28:20.286Z,101337.83
2023-11-30T11:30:49.487Z,101330.52
2023-11-30T11:33:18.520Z,101327.98
2023-11-30T11:35:46.826Z,101332.75
2023-11-30T11:38:14.168Z,101333.53
2023-11-30T11:40:42.675Z,101331.25
2023-11-30T11:43:10.411Z,101331.83
2023-11-30T11:45:38.801Z,101323.24
2023-11-30T11:48:06.440Z,101324.58
2023-11-30T11:50:33.654Z,101320.16
2023-11-30T11:53:02.048Z,101318.31
2023-11-30T11:55:29.335Z,101321.91
2023-11-30T11:57:57.225Z,101314.07
2023-11-30T12:00:26.022Z,101312.16
2023-11-30T12:03:04.225Z,101313.86
2023-11-30T12:05:31.370Z,101311.31
2023-11-30T12:08:01.012Z,101312.27
2023-11-30T12:10:34.241Z,101308.67
2023-11-30T12:13:02.963Z,101310.11
2023-11-30T12:15:30.845Z,101308.10
2023-11-30T12:17:58.288Z,101308.95
2023-11-30T12:20:26.829Z,101304.65
2023-11-30T12:22:54.481Z,101301.95
2023-11-30T12:25:21.941Z,101300.69
2023-11-30T12:27:49.332Z,101300.64
2023-11-30T12:30:16.573Z,101301.16
2023-11-30T12:32:43.884Z,101307.27
2023-11-30T12:35:11.586Z,101307.79
2023-11-30T12:37:39.408Z,101309.22
2023-11-30T12:40:15.488Z,101308.27
2023-11-30T12:42:46.176Z,101308.42
2023-11-30T12:45:14.462Z,101308.69
2023-11-30T12:47:42.791Z,101311.29
2023-11-30T12:50:11.394Z,101310.55
2023-11-30T12:52:38.738Z,101311.13
2023-11-30T12:55:06.717Z,101304.98
2023-11-30T12:57:36.246Z,101303.55
2023-11-30T13:00:11.020Z,101301.59
2023-11-30T13:02:38.620Z,101300.95
2023-11-30T13:05:06.002Z,101296.02
2023-11-30T13:07:33.192Z,101297.98
2023-11-30T13:10:00.610Z,101295.75
2023-11-30T13:12:28.085Z,101294.27
2023-11-30T13:14:57.860Z,101294.27
2023-11-30T13:17:24.960Z,101290.66
2023-11-30T13:19:52.018Z,101286.47
2023-11-30T13:22:20.271Z,101286.15
2023-11-30T13:24:48.333Z,101291.61
2023-11-30T13:27:15.535Z,101290.08
2023-11-30T13:29:42.725Z,101291.30
2023-11-30T13:34:39.105Z,101287.58
2023-11-30T13:37:06.296Z,101290.43
2023-11-30T13:39:34.029Z,101284.80
2023-11-30T13:42:01.187Z,101288.31
2023-11-30T13:44:29.378Z,101289.48
2023-11-30T13:46:56.819Z,101288.11
2023-11-30T13:49:25.413Z,101291.92
2023-11-30T13:51:52.547Z,101292.40
2023-11-30T13:54:19.724Z,101289.75
2023-11-30T13:56:47.445Z,101287.20
2023-11-30T13:59:14.712Z,101290.39
2023-11-30T14:01:42.082Z,101289.13
2023-11-30T14:04:09.769Z,101287.27
2023-11-30T14:06:38.061Z,101292.56
2023-11-30T14:09:09.052Z,101293.52
2023-11-30T14:11:36.414Z,101293.47
2023-11-30T14:14:06.625Z,101294.41
2023-11-30T14:16:33.915Z,101295.16
2023-11-30T14:19:02.025Z,101298.07
2023-11-30T14:21:29.490Z,101298.98
2023-11-30T14:24:00.290Z,101299.88
2023-11-30T14:26:28.844Z,101300.05
2023-11-30T14:28:56.502Z,101301.27
2023-11-30T14:31:25.136Z,101303.44
2023-11-30T14:33:53.739Z,101309.11
2023-11-30T14:36:21.979Z,101309.42
2023-11-30T14:38:50.324Z,101318.16
2023-11-30T14:41:17.901Z,101312.45
2023-11-30T14:43:45.100Z,101316.75
2023-11-30T14:46:12.718Z,101318.66
2023-11-30T14:48:43.751Z,101319.20
2023-11-30T14:51:12.922Z,101316.64
2023-11-30T14:53:40.702Z,101315.85
2023-11-30T14:56:09.524Z,101316.65
2023-11-30T14:58:36.768Z,101314.32
2023-11-30T15:01:04.480Z,101312.14
2023-11-30T15:03:33.160Z,101310.71
2023-11-30T15:06:00.539Z,101313.62
2023-11-30T15:08:28.870Z,101315.21
2023-11-30T15:10:56.458Z,101317.91
2023-11-30T15:13:24.505Z,101319.66
2023-11-30T15:15:51.787Z,101322.73
2023-11-30T15:18:20.183Z,101323.27
2023-11-30T15:20:47.917Z,101323.15
2023-11-30T15:23:14.906Z,101320.98
2023-11-30T15:25:42.202Z,101326.70
2023-11-30T15:28:12.263Z,101328.61
2023-11-30T15:30:39.748Z,101327.80
2023-11-30T15:33:09.618Z,101328.38
2023-11-30T15:35:36.913Z,101329.34
2023-11-30T15:38:04.994Z,101329.34
2023-11-30T15:40:32.102Z,101327.05
2023-11-30T15:42:59.686Z,101328.02
2023-11-30T15:45:28.712Z,101330.45
2023-11-30T15:47:55.969Z,101328.17
2023-11-30T15:50:25.855Z,101333.01
2023-11-30T15:52:53.023Z,101327.45
2023-11-30T15:55:20.059Z,101335.71
2023-11-30T15:57:49.904Z,101334.02
2023-11-30T16:00:18.429Z,101337.20
2023-11-30T16:02:48.522Z,101337.73
2023-11-30T16:05:19.283Z,101337.89
2023-11-30T16:07:46.420Z,101339.48
2023-11-30T16:10:14.623Z,101339.91
2023-11-30T16:12:41.748Z,101342.61
2023-11-30T16:15:11.962Z,101341.55
2023-11-30T16:17:39.710Z,101343.19
2023-11-30T16:20:11.769Z,101344.73
2023-11-30T16:22:39.924Z,101346.95
2023-11-30T16:25:08.025Z,101349.96
2023-11-30T16:27:35.076Z,101350.06
2023-11-30T16:30:02.796Z,101355.99
2023-11-30T16:32:30.020Z,101357.11
2023-11-30T16:35:01.288Z,101359.29
2023-11-30T16:37:28.708Z,101363.58
2023-11-30T16:39:56.284Z,101369.24
2023-11-30T16:42:23.629Z,101369.65
2023-11-30T16:44:51.119Z,101365.79
2023-11-30T16:47:21.653Z,101368.27
2023-11-30T16:49:48.633Z,101367.32
2023-11-30T16:52:16.033Z,101369.02
2023-11-30T16:54:43.936Z,101368.96
2023-11-30T16:57:11.029Z,101370.94
2023-11-30T16:59:39.113Z,101374.20
2023-11-30T17:02:06.952Z,101373.10
2023-11-30T17:04:34.794Z,101374.89
2023-11-30T17:07:02.463Z,101376.80
2023-11-30T17:09:30.478Z,101376.59
2023-11-30T17:11:57.577Z,101378.40
2023-11-30T17:14:24.622Z,101374.13
2023-11-30T17:16:51.911Z,101374.70
2023-11-30T17:19:19.028Z,101374.70
2023-11-30T17:21:50.182Z,101373.23
2023-11-30T17:24:18.637Z,101372.41
2023-11-30T17:26:46.054Z,101374.48
2023-11-30T17:29:14.339Z,101373.25
2023-11-30T17:31:41.413Z,101375.17
2023-11-30T17:34:09.007Z,101371.49
2023-11-30T17:36:36.305Z,101367.14
2023-11-30T17:39:03.583Z,101369.48
2023-11-30T17:41:30.619Z,101369.52
2023-11-30T17:43:58.154Z,101371.86
2023-11-30T17:46:25.308Z,101372.30
2023-11-30T17:48:52.657Z,101377.19
2023-11-30T17:51:19.862Z,101373.85
2023-11-30T17:53:47.894Z,101377.71
2023-11-30T17:56:15.194Z,101378.61
2023-11-30T17:58:43.248Z,101377.41
2023-11-30T18:01:10.454Z,101377.25
2023-11-30T18:03:37.774Z,101378.68
2023-11-30T18:06:05.753Z,101377.79
2023-11-30T18:08:33.329Z,101378.48
2023-11-30T18:11:00.834Z,101382.03
2023-11-30T18:13:27.897Z,101381.50
2023-11-30T18:15:56.299Z,101380.23
2023-11-30T18:18:24.018Z,101379.98
2023-11-30T18:20:51.175Z,101382.05
2023-11-30T18:23:18.238Z,101380.05
2023-11-30T18:25:45.717Z,101382.95
2023-11-30T18:28:13.039Z,101381.73
2023-11-30T18:30:40.202Z,101382.95
2023-11-30T18:33:09.309Z,101383.23
2023-11-30T18:35:36.503Z,101384.23
2023-11-30T18:38:05.102Z,101380.89
2023-11-30T18:40:32.207Z,101381.10
2023-11-30T18:42:59.469Z,101380.20
2023-11-30T18:45:27.871Z,101379.89
2023-11-30T18:47:55.714Z,101378.77
2023-11-30T18:50:22.824Z,101379.98
2023-11-30T18:52:50.646Z,101376.76
2023-11-30T18:55:21.265Z,101376.91
2023-11-30T18:57:48.881Z,101376.33
2023-11-30T19:00:16.615Z,101376.51
2023-11-30T19:02:43.759Z,101372.89
2023-11-30T19:05:11.160Z,101374.64
2023-11-30T19:07:38.588Z,101374.48
2023-11-30T19:10:06.246Z,101376.87
2023-11-30T19:12:33.385Z,101373.27
2023-11-30T19:15:00.520Z,101371.45
2023-11-30T19:17:27.824Z,101371.27
2023-11-30T19:19:54.807Z,101368.13
2023-11-30T19:22:22.894Z,101366.85
2023-11-30T19:24:49.980Z,101368.65
2023-11-30T19:27:17.323Z,101370.29
2023-11-30T19:29:47.230Z,101368.61
2023-11-30T19:32:14.978Z,101372.41
2023-11-30T19:34:42.582Z,101369.17
2023-11-30T19:37:10.094Z,101367.59
2023-11-30T19:39:37.927Z,101366.64
2023-11-30T19:42:05.569Z,101363.89
2023-11-30T19:44:33.971Z,101358.20
2023-11-30T19:47:03.049Z,101359.02
2023-11-30T19:49:30.521Z,101356.52
2023-11-30T19:51:58.189Z,101357.69
2023-11-30T19:54:26.819Z,101362.55
2023-11-30T19:56:54.001Z,101360.60
2023-11-30T19:59:21.707Z,101359.02
2023-11-30T20:01:48.826Z,101364.27
2023-11-30T20:04:16.831Z,101363.75
2023-11-30T20:06:44.505Z,101359.19
2023-11-30T20:09:13.001Z,101357.16
2023-11-30T20:11:40.053Z,101358.29
2023-11-30T20:14:08.840Z,101358.55
2023-11-30T20:16:43.591Z,101354.36
2023-11-30T20:19:11.336Z,101356.85
2023-11-30T20:21:38.941Z,101355.53
2023-11-30T20:24:07.013Z,101354.84
2023-11-30T20:26:34.197Z,101353.14
2023-11-30T20:29:01.290Z,101355.25
2023-11-30T20:31:28.408Z,101352.70
2023-11-30T20:33:55.984Z,101355.66
2023-11-30T20:36:23.399Z,101355.23
2023-11-30T20:38:50.921Z,101352.00
2023-11-30T20:41:18.690Z,101349.55
2023-11-30T20:43:46.200Z,101354.11
2023-11-30T20:46:14.528Z,101354.65
2023-11-30T20:48:42.010Z,101353.48
2023-11-30T20:51:10.380Z,101351.19
2023-11-30T20:53:37.454Z,101349.16
2023-11-30T20:56:04.997Z,101351.45
2023-11-30T20:58:32.250Z,101349.21
2023-11-30T21:00:59.523Z,101352.09
2023-11-30T21:03:27.892Z,101350.39
2023-11-30T21:05:55.030Z,101356.69
2023-11-30T21:08:22.378Z,101354.94
2023-11-30T21:10:49.642Z,101353.77
2023-11-30T21:13:18.479Z,101357.84
2023-11-30T21:15:45.612Z,101361.52
2023-11-30T21:18:12.807Z,101362.45
2023-11-30T21:20:39.881Z,101363.62
2023-11-30T21:23:06.936Z,101364.36
2023-11-30T21:25:33.951Z,101362.86
2023-11-30T21:28:01.071Z,101365.84
2023-11-30T21:30:28.205Z,101367.96
2023-11-30T21:32:55.740Z,101367.21
2023-11-30T21:35:22.764Z,101366.95
2023-11-30T21:37:49.770Z,101365.15
2023-11-30T21:40:16.984Z,101363.02
2023-11-30T21:42:44.474Z,101364.28
2023-11-30T21:45:11.863Z,101360.41
2023-11-30T21:47:38.980Z,101363.74
2023-11-30T21:50:17.683Z,101364.14
2023-11-30T21:52:48.030Z,101365.34
2023-11-30T21:55:18.787Z,101364.54
2023-11-30T21:57:49.689Z,101359.77
2023-11-30T22:00:17.460Z,101358.23
2023-11-30T22:02:46.396Z,101358.92
2023-11-30T22:05:23.530Z,101355.05
2023-11-30T22:07:54.431Z,101351.92
2023-11-30T22:10:22.520Z,101352.94
2023-11-30T22:12:49.780Z,101353.04
2023-11-30T22:15:16.812Z,101354.73
2023-11-30T22:17:44.307Z,101352.52
2023-11-30T22:20:12.047Z,101355.73
2023-11-30T22:22:39.421Z,101356.12
2023-11-30T22:25:06.895Z,101355.06
2023-11-30T22:27:34.054Z,101349.71
2023-11-30T22:30:01.094Z,101354.07
2023-11-30T22:32:28.175Z,101352.27
2023-11-30T22:34:55.486Z,101357.36
2023-11-30T22:37:22.775Z,101353.95
2023-11-30T22:39:49.892Z,101350.73
2023-11-30T22:42:17.311Z,101350.02
2023-11-30T22:44:44.658Z,101352.17
2023-11-30T22:47:11.768Z,101348.60
2023-11-30T22:49:39.031Z,101348.45
2023-11-30T22:52:06.303Z,101346.88
2023-11-30T22:54:33.994Z,101345.82
2023-11-30T22:57:01.240Z,101343.06
2023-11-30T22:59:28.986Z,101340.05
2023-11-30T23:01:56.409Z,101340.31
2023-11-30T23:04:23.796Z,101340.11
2023-11-30T23:06:51.342Z,101339.60
2023-11-30T23:09:18.647Z,101340.54
2023-11-30T23:11:45.782Z,101342.73
2023-11-30T23:14:12.960Z,101342.41
2023-11-30T23:16:40.249Z,101338.50
2023-11-30T23:19:08.962Z,101338.21
2023-11-30T23:21:36.058Z,101336.38
2023-11-30T23:24:03.394Z,101334.84
2023-11-30T23:26:30.438Z,101334.95
2023-11-30T23:28:57.536Z,101331.23
2023-11-30T23:31:24.870Z,101331.93
2023-11-30T23:33:52.278Z,101327.10
2023-11-30T23:36:19.653Z,101322.60
2023-11-30T23:38:47.062Z,101315.98
2023-11-30T23:41:14.404Z,101312.96
2023-11-30T23:43:41.511Z,101310.88
2023-11-30T23:46:10.003Z,101313.48
2023-11-30T23:48:37.191Z,101312.54
2023-11-30T23:51:04.625Z,101313.71
2023-11-30T23:53:32.088Z,101312.29
2023-11-30T23:55:59.330Z,101316.69
2023-11-30T23:58:26.475Z,101316.68
